Time;durP1;ratioP1;P1;durP2;ratioP2;P2;SDS_P1;SDS_P2;PMS_P1;PMS_P2;Temp;Humidity;BMP_temperature;BMP_pressure;BME280_temperature;BME280_humidity;BME280_pressure;Samples;Min_cycle;Max_cycle;Signal;HPM_P1;HPM_P2
2021/09/28 00:00:51;;;;;;;2.40;0.60;;;11.30;99.90;;;;;;6111468;23;20017;-91
2021/09/28 00:03:17;;;;;;;3.88;0.65;;;11.20;99.90;;;;;;6111467;23;20443;-91
2021/09/28 00:05:44;;;;;;;3.35;1.05;;;11.20;99.90;;;;;;6087186;23;20010;-91
2021/09/28 00:08:09;;;;;;;2.72;0.60;;;11.20;99.90;;;;;;6111593;23;20380;-91
2021/09/28 00:10:36;;;;;;;4.35;0.75;;;11.10;99.90;;;;;;6111196;23;20179;-93
2021/09/28 00:13:04;;;;;;;3.72;0.50;;;11.10;99.90;;;;;;6087132;23;20435;-91
2021/09/28 00:15:30;;;;;;;4.55;0.60;;;11.00;99.90;;;;;;6063814;23;20030;-91
2021/09/28 00:17:56;;;;;;;3.50;0.60;;;11.10;99.90;;;;;;6087163;23;20007;-90
2021/09/28 00:20:23;;;;;;;2.20;0.70;;;11.10;99.90;;;;;;6087548;23;20013;-91
2021/09/28 00:22:53;;;;;;;3.53;0.80;;;11.10;99.90;;;;;;6111382;23;20234;-92
2021/09/28 00:25:20;;;;;;;2.67;0.60;;;11.10;99.90;;;;;;6087531;23;20002;-91
2021/09/28 00:27:46;;;;;;;2.92;0.70;;;11.10;99.90;;;;;;6111158;23;20006;-91
2021/09/28 00:30:12;;;;;;;3.63;0.57;;;11.10;99.90;;;;;;6111095;23;20006;-92
2021/09/28 00:32:38;;;;;;;1.25;0.50;;;11.00;99.90;;;;;;6086993;23;20011;-92
2021/09/28 00:35:04;;;;;;;4.30;0.60;;;11.00;99.90;;;;;;6087175;23;20093;-91
2021/09/28 00:37:30;;;;;;;4.07;0.55;;;11.00;99.90;;;;;;6086821;23;20030;-91
2021/09/28 00:39:56;;;;;;;2.90;0.40;;;11.00;99.90;;;;;;6111358;23;20007;-91
2021/09/28 00:42:22;;;;;;;3.63;0.50;;;10.90;99.90;;;;;;6087066;23;20089;-91
2021/09/28 00:44:48;;;;;;;1.88;0.40;;;10.90;99.90;;;;;;6087111;23;20015;-92
2021/09/28 00:47:15;;;;;;;2.30;0.50;;;11.00;99.90;;;;;;6110747;23;20026;-91
2021/09/28 00:49:43;;;;;;;3.72;0.60;;;10.90;99.90;;;;;;6086888;23;20042;-92
2021/09/28 00:52:10;;;;;;;2.25;0.40;;;10.90;99.90;;;;;;6086841;23;20055;-91
2021/09/28 00:54:39;;;;;;;6.05;0.80;;;10.90;99.90;;;;;;6087069;23;20070;-90
2021/09/28 00:57:09;;;;;;;4.05;0.50;;;10.90;99.90;;;;;;6087109;23;20026;-92
2021/09/28 00:59:36;;;;;;;6.45;0.45;;;10.90;99.90;;;;;;6086899;23;20010;-92
2021/09/28 01:02:09;;;;;;;2.78;0.50;;;10.90;99.90;;;;;;6111410;23;20089;-92
2021/09/28 01:04:35;;;;;;;3.83;0.40;;;10.90;99.90;;;;;;6111016;23;20014;-91
2021/09/28 01:07:03;;;;;;;3.28;0.50;;;10.80;99.90;;;;;;6086911;23;20013;-91
2021/09/28 01:09:32;;;;;;;1.58;0.50;;;10.80;99.90;;;;;;6087167;23;20017;-91
2021/09/28 01:11:58;;;;;;;5.13;0.70;;;10.80;99.90;;;;;;6086352;23;20096;-90
2021/09/28 01:14:28;;;;;;;2.97;0.40;;;10.80;99.90;;;;;;6086960;23;20030;-91
2021/09/28 01:16:53;;;;;;;4.22;0.60;;;10.90;99.90;;;;;;6111417;23;20010;-91
2021/09/28 01:19:19;;;;;;;2.53;0.40;;;10.80;99.90;;;;;;6110500;23;20446;-92
2021/09/28 01:21:46;;;;;;;4.25;1.23;;;10.80;99.90;;;;;;6110480;23;20332;-91
2021/09/28 01:24:15;;;;;;;3.03;0.40;;;10.80;99.90;;;;;;6110414;23;20022;-91
2021/09/28 01:26:42;;;;;;;3.60;0.40;;;10.80;99.90;;;;;;6110632;23;20010;-91
2021/09/28 01:29:09;;;;;;;2.75;0.40;;;10.80;99.90;;;;;;6110439;23;20088;-91
2021/09/28 01:31:41;;;;;;;3.03;0.40;;;10.80;99.90;;;;;;6086579;23;20018;-92
2021/09/28 01:34:08;;;;;;;1.67;0.50;;;10.80;99.90;;;;;;6110681;23;20006;-91
2021/09/28 01:36:35;;;;;;;3.63;0.50;;;10.90;99.90;;;;;;6110221;23;20034;-91
2021/09/28 01:39:02;;;;;;;3.97;0.50;;;10.70;99.90;;;;;;6085890;23;20006;-92
2021/09/28 01:41:28;;;;;;;1.70;0.45;;;10.80;99.90;;;;;;6110187;23;20014;-91
2021/09/28 01:44:04;;;;;;;2.65;0.52;;;10.70;99.90;;;;;;6086437;23;20045;-92
2021/09/28 01:46:30;;;;;;;4.18;0.68;;;10.70;99.90;;;;;;6086034;23;20018;-91
2021/09/28 01:48:56;;;;;;;4.60;0.40;;;10.70;99.90;;;;;;6085996;23;20014;-91
2021/09/28 01:51:22;;;;;;;2.80;0.43;;;10.60;99.90;;;;;;6086485;23;20018;-91
2021/09/28 01:53:48;;;;;;;5.15;0.50;;;10.60;99.90;;;;;;6110186;23;20062;-92
2021/09/28 01:56:22;;;;;;;3.88;0.60;;;10.70;99.90;;;;;;6110489;23;20014;-92
2021/09/28 01:58:48;;;;;;;2.60;0.50;;;10.70;99.90;;;;;;6086538;23;20010;-91
2021/09/28 02:01:14;;;;;;;3.05;0.60;;;10.60;99.90;;;;;;6110511;23;20011;-92
2021/09/28 02:03:43;;;;;;;3.95;0.68;;;10.60;99.90;;;;;;6110493;23;20013;-92
2021/09/28 02:06:09;;;;;;;2.40;0.40;;;10.60;99.90;;;;;;6086765;23;20007;-92
2021/09/28 02:08:35;;;;;;;2.72;0.65;;;10.50;99.90;;;;;;6110096;23;20022;-91
2021/09/28 02:11:01;;;;;;;1.52;0.30;;;10.60;99.90;;;;;;6110378;23;20014;-91
2021/09/28 02:13:27;;;;;;;5.38;0.50;;;10.60;99.90;;;;;;6086240;23;20002;-91
2021/09/28 02:15:52;;;;;;;2.22;0.35;;;10.60;99.90;;;;;;6109988;23;20021;-91
2021/09/28 02:18:18;;;;;;;4.38;0.40;;;10.60;99.90;;;;;;6110079;23;20006;-93
2021/09/28 02:20:44;;;;;;;2.85;0.40;;;10.60;99.90;;;;;;6086296;23;20450;-91
2021/09/28 02:23:10;;;;;;;2.05;0.30;;;10.60;99.90;;;;;;6085642;23;20282;-92
2021/09/28 02:25:36;;;;;;;2.67;0.40;;;10.60;99.90;;;;;;6086314;23;20006;-91
2021/09/28 02:28:01;;;;;;;3.47;0.50;;;10.50;99.90;;;;;;6109490;23;20010;-91
2021/09/28 02:30:27;;;;;;;4.03;0.50;;;10.60;99.90;;;;;;6111517;23;20007;-90
2021/09/28 02:32:53;;;;;;;1.85;0.35;;;10.60;99.90;;;;;;6085894;23;20069;-91
2021/09/28 02:35:19;;;;;;;4.63;0.43;;;10.50;99.90;;;;;;6086073;23;20455;-91
2021/09/28 02:37:44;;;;;;;3.50;0.40;;;10.50;99.90;;;;;;6109303;23;20014;-92
2021/09/28 02:40:11;;;;;;;3.38;0.40;;;10.50;99.90;;;;;;6109918;23;20027;-91
2021/09/28 02:42:37;;;;;;;4.03;0.43;;;10.50;99.90;;;;;;6085685;23;20006;-91
2021/09/28 02:45:06;;;;;;;3.47;0.30;;;10.50;99.90;;;;;;6109925;23;20066;-91
2021/09/28 02:47:33;;;;;;;4.22;0.30;;;10.40;99.90;;;;;;6084116;23;20034;-91
2021/09/28 02:49:58;;;;;;;4.28;0.40;;;10.50;99.90;;;;;;6033480;23;20011;-92
2021/09/28 02:52:25;;;;;;;4.30;0.77;;;10.50;99.90;;;;;;6057199;23;20025;-92
2021/09/28 02:54:53;;;;;;;2.92;0.40;;;10.40;99.90;;;;;;6057418;23;20007;-92
2021/09/28 02:57:19;;;;;;;3.35;0.30;;;10.40;99.90;;;;;;6056900;23;20011;-91
2021/09/28 02:59:44;;;;;;;3.65;0.47;;;10.50;99.90;;;;;;6057267;23;20437;-92
2021/09/28 03:02:10;;;;;;;6.32;0.50;;;10.50;99.90;;;;;;6057231;23;20006;-92
2021/09/28 03:04:36;;;;;;;3.58;0.90;;;10.50;99.90;;;;;;6057120;23;20014;-92
2021/09/28 03:07:02;;;;;;;4.55;0.40;;;10.40;99.90;;;;;;6057145;23;20007;-91
2021/09/28 03:09:37;;;;;;;7.47;0.77;;;10.40;99.90;;;;;;6056832;23;20033;-92
2021/09/28 03:12:03;;;;;;;3.60;0.50;;;10.40;99.90;;;;;;6057083;23;20029;-91
2021/09/28 03:14:29;;;;;;;3.17;0.52;;;10.40;99.90;;;;;;6057049;23;20015;-92
2021/09/28 03:16:55;;;;;;;5.72;0.60;;;10.30;99.90;;;;;;6057046;23;20313;-91
2021/09/28 03:19:21;;;;;;;2.97;0.63;;;10.40;99.90;;;;;;6057098;23;20007;-91
2021/09/28 03:21:47;;;;;;;6.25;0.60;;;10.40;99.90;;;;;;6056960;23;20035;-92
2021/09/28 03:24:13;;;;;;;3.17;0.50;;;10.30;99.90;;;;;;6056905;23;20007;-91
2021/09/28 03:26:40;;;;;;;3.90;0.50;;;10.20;99.90;;;;;;6057096;23;20015;-91
2021/09/28 03:29:06;;;;;;;2.15;0.55;;;10.20;99.90;;;;;;6056897;23;20062;-91
2021/09/28 03:31:34;;;;;;;4.38;0.60;;;10.30;99.90;;;;;;6057088;23;20022;-91
2021/09/28 03:33:59;;;;;;;2.72;0.40;;;10.20;99.90;;;;;;6057389;23;20003;-91
2021/09/28 03:36:25;;;;;;;3.70;0.45;;;10.20;99.90;;;;;;6058867;23;20011;-91
2021/09/28 03:38:51;;;;;;;1.75;0.40;;;10.20;99.90;;;;;;6058881;23;20007;-95
2021/09/28 03:41:17;;;;;;;3.30;0.52;;;10.10;99.90;;;;;;6057635;23;20007;-92
2021/09/28 03:43:42;;;;;;;2.28;0.40;;;10.10;99.90;;;;;;6059119;23;20007;-94
2021/09/28 03:46:08;;;;;;;2.50;0.47;;;10.10;99.90;;;;;;6070277;23;20018;-92
2021/09/28 03:48:34;;;;;;;3.58;0.35;;;10.20;99.90;;;;;;6112217;23;20037;-93
2021/09/28 03:50:59;;;;;;;2.70;0.50;;;10.10;99.90;;;;;;6062995;23;20051;-93
2021/09/28 03:53:25;;;;;;;2.63;0.40;;;10.20;99.90;;;;;;6111383;23;20002;-94
2021/09/28 03:55:51;;;;;;;2.65;0.55;;;10.10;99.90;;;;;;6110947;23;20013;-93
2021/09/28 03:58:17;;;;;;;2.13;0.50;;;10.10;99.90;;;;;;6087499;23;20026;-93
2021/09/28 04:00:43;;;;;;;3.15;0.60;;;10.10;99.90;;;;;;6087716;23;20014;-92
2021/09/28 04:03:10;;;;;;;4.35;0.60;;;10.10;99.90;;;;;;6087162;23;20002;-95
2021/09/28 04:05:37;;;;;;;3.50;0.80;;;10.10;99.90;;;;;;6111625;23;20058;-94
2021/09/28 04:08:04;;;;;;;3.90;1.23;;;10.10;99.90;;;;;;6111528;23;20013;-93
2021/09/28 04:10:30;;;;;;;3.63;1.20;;;10.10;99.90;;;;;;6111599;23;20034;-94
2021/09/28 04:12:56;;;;;;;4.65;1.38;;;10.10;99.90;;;;;;6087753;23;20018;-94
2021/09/28 04:15:25;;;;;;;3.75;1.60;;;10.10;99.90;;;;;;6087450;23;20058;-93
2021/09/28 04:17:53;;;;;;;4.30;2.00;;;10.00;99.90;;;;;;6086816;23;20105;-94
2021/09/28 04:20:19;;;;;;;5.85;2.00;;;10.00;99.90;;;;;;6087372;23;20002;-94
2021/09/28 04:22:45;;;;;;;4.70;1.33;;;9.90;99.90;;;;;;6111630;23;20010;-95
2021/09/28 04:25:18;;;;;;;4.80;1.95;;;10.00;99.90;;;;;;6111326;23;20034;-94
2021/09/28 04:27:43;;;;;;;4.80;1.48;;;10.00;99.90;;;;;;6087385;23;20014;-94
2021/09/28 04:30:10;;;;;;;6.80;1.60;;;9.90;99.90;;;;;;6087254;23;20010;-94
2021/09/28 04:32:35;;;;;;;3.35;1.65;;;9.90;99.90;;;;;;6087008;23;20077;-94
2021/09/28 04:35:01;;;;;;;6.18;1.38;;;9.90;99.90;;;;;;6111164;23;20483;-94
2021/09/28 04:37:26;;;;;;;3.30;0.90;;;9.90;99.90;;;;;;6086329;23;20070;-94
2021/09/28 04:39:52;;;;;;;3.13;1.40;;;9.80;99.90;;;;;;6110844;23;20385;-94
2021/09/28 04:42:18;;;;;;;3.30;0.95;;;9.80;99.90;;;;;;6087207;23;20440;-93
2021/09/28 04:44:43;;;;;;;8.45;1.30;;;9.80;99.90;;;;;;6087092;23;20199;-94
2021/09/28 04:47:10;;;;;;;4.45;1.20;;;9.80;99.90;;;;;;6105641;23;20036;-94
2021/09/28 04:49:36;;;;;;;3.10;1.02;;;9.80;99.90;;;;;;6058484;23;20010;-94
2021/09/28 04:52:01;;;;;;;5.43;1.27;;;9.80;99.90;;;;;;6058372;23;20042;-94
2021/09/28 04:54:27;;;;;;;4.60;1.13;;;9.80;99.90;;;;;;6058513;23;20018;-95
2021/09/28 04:56:53;;;;;;;4.28;1.17;;;9.70;99.90;;;;;;6058249;23;20017;-94
2021/09/28 04:59:18;;;;;;;7.47;1.77;;;9.70;99.90;;;;;;6058148;23;20133;-93
2021/09/28 05:01:44;;;;;;;6.85;2.15;;;9.60;99.90;;;;;;6058084;23;20013;-94
2021/09/28 05:07:13;;;;;;;4.38;1.20;;;9.60;99.90;;;;;;6053690;23;20007;-95
2021/09/28 05:09:39;;;;;;;4.50;1.10;;;9.60;99.90;;;;;;6056057;23;20007;-93
2021/09/28 05:12:06;;;;;;;3.40;1.08;;;9.70;99.90;;;;;;6057179;23;20047;-92
2021/09/28 05:14:32;;;;;;;2.25;0.70;;;9.60;99.90;;;;;;6058256;23;20373;-92
2021/09/28 05:16:58;;;;;;;3.58;1.02;;;9.50;99.90;;;;;;6057760;23;20183;-93
2021/09/28 05:19:24;;;;;;;3.42;0.88;;;9.50;99.90;;;;;;6057366;23;20026;-93
2021/09/28 05:21:50;;;;;;;2.15;0.90;;;9.60;99.90;;;;;;6057843;23;20090;-92
2021/09/28 05:24:16;;;;;;;5.00;0.80;;;9.60;99.90;;;;;;6057426;23;20014;-92
2021/09/28 05:26:42;;;;;;;3.97;0.50;;;9.60;99.90;;;;;;6057534;23;20014;-92
2021/09/28 05:29:08;;;;;;;4.13;0.68;;;9.50;99.90;;;;;;6058087;23;20011;-93
2021/09/28 05:31:33;;;;;;;3.95;0.45;;;9.50;99.90;;;;;;6057699;23;20038;-93
2021/09/28 05:33:59;;;;;;;1.38;0.40;;;9.40;99.90;;;;;;6082010;23;20007;-94
2021/09/28 05:36:25;;;;;;;3.50;0.50;;;9.50;99.90;;;;;;6057667;23;20035;-93
2021/09/28 05:38:50;;;;;;;3.63;0.40;;;9.50;99.90;;;;;;6081861;23;20007;-93
2021/09/28 05:41:16;;;;;;;2.70;0.40;;;9.50;99.90;;;;;;6081806;23;20014;-92
2021/09/28 05:43:41;;;;;;;1.38;0.38;;;9.50;99.90;;;;;;6057541;23;20011;-93
2021/09/28 05:46:08;;;;;;;2.42;0.32;;;9.50;99.90;;;;;;6092959;23;20010;-93
2021/09/28 05:48:34;;;;;;;4.32;0.30;;;9.50;99.90;;;;;;6085711;23;20436;-93
2021/09/28 05:51:00;;;;;;;4.15;0.57;;;9.50;99.90;;;;;;6085756;23;20117;-95
2021/09/28 05:53:33;;;;;;;2.30;0.30;;;9.50;99.90;;;;;;6085889;23;20014;-94
2021/09/28 05:55:58;;;;;;;4.65;0.40;;;9.40;99.90;;;;;;6085606;23;20015;-94
2021/09/28 05:58:29;;;;;;;1.67;0.40;;;9.50;99.90;;;;;;6113586;23;20014;-95
2021/09/28 06:00:58;;;;;;;2.65;0.30;;;9.60;99.90;;;;;;6089629;23;20010;-96
2021/09/28 06:03:31;;;;;;;2.47;0.22;;;9.50;99.90;;;;;;6065495;23;20017;-96
2021/09/28 06:05:57;;;;;;;2.85;0.30;;;9.50;99.90;;;;;;6088483;23;20054;-96
2021/09/28 06:08:23;;;;;;;4.03;0.35;;;9.60;99.90;;;;;;6111965;23;20019;-95
2021/09/28 06:11:15;;;;;;;1.50;0.45;;;9.60;99.90;;;;;;6087916;23;20105;-95
2021/09/28 06:13:45;;;;;;;3.42;0.35;;;9.60;99.90;;;;;;6088947;23;20017;-95
2021/09/28 06:16:12;;;;;;;4.00;0.40;;;9.60;99.90;;;;;;6088175;23;20061;-96
2021/09/28 06:18:40;;;;;;;3.22;0.30;;;9.70;99.90;;;;;;6112912;23;20011;-95
2021/09/28 06:21:17;;;;;;;3.80;0.50;;;9.70;99.90;;;;;;6112618;23;20006;-95
2021/09/28 06:23:49;;;;;;;3.50;0.50;;;9.70;99.90;;;;;;6088340;23;20014;-95
2021/09/28 06:26:17;;;;;;;1.83;0.35;;;9.80;99.90;;;;;;6110619;23;20054;-93
2021/09/28 06:28:42;;;;;;;2.67;0.30;;;9.90;99.90;;;;;;6109339;23;20010;-92
2021/09/28 06:31:10;;;;;;;1.25;0.20;;;9.80;99.90;;;;;;6084914;23;20017;-91
2021/09/28 06:33:36;;;;;;;2.17;0.30;;;9.90;99.90;;;;;;6085083;23;20017;-92
2021/09/28 06:36:07;;;;;;;2.20;0.30;;;9.90;99.90;;;;;;6085502;23;20006;-92
2021/09/28 06:38:33;;;;;;;5.50;0.30;;;10.00;99.90;;;;;;6085098;23;20014;-92
2021/09/28 06:40:59;;;;;;;2.13;0.30;;;10.00;99.90;;;;;;6109019;23;20146;-93
2021/09/28 06:43:25;;;;;;;1.85;0.30;;;10.10;99.90;;;;;;6108895;23;20042;-92
2021/09/28 06:45:59;;;;;;;3.33;0.30;;;10.20;99.90;;;;;;6079966;23;20014;-93
2021/09/28 06:48:31;;;;;;;2.13;0.57;;;10.30;99.90;;;;;;6056312;23;20018;-92
2021/09/28 06:50:58;;;;;;;2.40;0.30;;;10.30;99.90;;;;;;6059713;23;20022;-90
2021/09/28 06:53:24;;;;;;;5.65;0.40;;;10.40;99.90;;;;;;6078239;23;20034;-90
2021/09/28 06:56:38;;;;;;;2.80;0.47;;;10.40;99.90;;;;;;6054017;23;20416;-91
2021/09/28 06:59:08;;;;;;;2.80;0.40;;;10.40;99.90;;;;;;6055928;23;20033;-94
2021/09/28 07:01:35;;;;;;;4.15;0.40;;;10.60;99.90;;;;;;6056649;23;20010;-94
2021/09/28 07:04:01;;;;;;;4.60;0.40;;;10.70;99.90;;;;;;6056306;23;20007;-95
2021/09/28 07:06:27;;;;;;;6.60;0.55;;;10.80;99.90;;;;;;6056144;23;20011;-95
2021/09/28 07:08:54;;;;;;;5.70;0.60;;;10.90;99.90;;;;;;6055189;23;20058;-94
2021/09/28 07:11:20;;;;;;;4.40;0.40;;;10.90;99.90;;;;;;6056302;23;20459;-95
2021/09/28 07:13:47;;;;;;;5.13;0.40;;;10.90;99.90;;;;;;6055864;23;20066;-95
2021/09/28 07:16:13;;;;;;;5.68;0.50;;;11.10;99.90;;;;;;6080341;23;20015;-94
2021/09/28 07:18:40;;;;;;;2.75;0.40;;;11.10;99.90;;;;;;6056310;23;20440;-94
2021/09/28 07:21:05;;;;;;;2.53;0.32;;;11.20;99.90;;;;;;6081186;23;20007;-94
2021/09/28 07:23:32;;;;;;;2.78;0.40;;;11.30;99.90;;;;;;6057218;23;20018;-96
2021/09/28 07:25:58;;;;;;;5.53;0.50;;;11.30;99.90;;;;;;6058118;23;20014;-94
2021/09/28 07:28:27;;;;;;;4.00;0.40;;;11.40;99.90;;;;;;6080918;23;20007;-93
2021/09/28 07:30:53;;;;;;;4.30;0.45;;;11.50;99.90;;;;;;6055682;23;20039;-96
2021/09/28 07:33:21;;;;;;;4.78;0.40;;;11.60;99.90;;;;;;6055857;23;20018;-93
2021/09/28 07:35:52;;;;;;;4.55;0.75;;;11.70;99.90;;;;;;6032224;23;20007;-94
2021/09/28 07:38:20;;;;;;;5.10;0.50;;;11.80;99.90;;;;;;6055160;23;20459;-90
2021/09/28 07:41:00;;;;;;;5.28;0.45;;;11.90;99.90;;;;;;6056045;23;20003;-91
2021/09/28 07:43:28;;;;;;;1.83;0.50;;;12.00;99.90;;;;;;6079590;23;20014;-92
2021/09/28 07:45:57;;;;;;;5.47;0.47;;;12.10;99.90;;;;;;6054933;23;20026;-95
2021/09/28 07:48:33;;;;;;;6.50;0.50;;;12.20;99.90;;;;;;6055954;23;20039;-93
2021/09/28 07:50:59;;;;;;;6.22;0.43;;;12.20;99.90;;;;;;6080206;23;20038;-94
2021/09/28 07:56:27;;;;;;;6.47;0.60;;;12.30;99.90;;;;;;6061222;23;20007;-94
2021/09/28 07:58:53;;;;;;;4.85;0.70;;;12.50;99.90;;;;;;6081039;23;20025;-94
2021/09/28 08:01:22;;;;;;;5.25;0.50;;;12.70;99.90;;;;;;6057498;23;20007;-91
2021/09/28 08:03:49;;;;;;;6.72;0.82;;;12.80;99.90;;;;;;6080825;23;20015;-94
2021/09/28 08:06:19;;;;;;;5.68;0.60;;;12.90;99.90;;;;;;6055878;23;20007;-94
2021/09/28 08:09:23;;;;;;;3.17;0.40;;;12.80;99.90;;;;;;6055705;23;20031;-94
2021/09/28 08:13:03;;;;;;;5.45;0.60;;;13.00;99.90;;;;;;6039635;23;20025;-93
2021/09/28 08:16:04;;;;;;;;;;;13.20;99.90;;;;;;6055420;23;20006;-94
2021/09/28 08:21:46;;;;;;;7.60;0.60;;;13.70;99.90;;;;;;6089546;23;20026;-94
2021/09/28 09:18:28;;;;;;;7.90;0.70;;;15.50;99.90;;;;;;6127812;23;20335;-92
2021/09/28 09:26:46;;;;;;;6.03;0.60;;;16.30;99.90;;;;;;6082144;23;20038;-91
2021/09/28 09:29:13;;;;;;;4.53;0.55;;;16.20;99.90;;;;;;6057424;23;20011;-92
2021/09/28 09:31:54;;;;;;;6.85;0.73;;;16.40;99.90;;;;;;6057342;23;20077;-91
2021/09/28 09:34:36;;;;;;;5.90;0.90;;;16.50;99.90;;;;;;6057750;23;20011;-91
2021/09/28 09:37:29;;;;;;;;;;;;;;;;;;;;;
2021/09/28 09:40:09;;;;;;;6.28;1.00;;;16.30;99.90;;;;;;6081417;23;20040;-91
2021/09/28 09:42:52;;;;;;;5.68;0.50;;;16.50;99.90;;;;;;6056519;23;20031;-91
2021/09/28 09:45:22;;;;;;;3.67;0.60;;;17.10;99.90;;;;;;6033333;23;20014;-89
2021/09/28 09:47:51;;;;;;;4.85;1.05;;;16.80;99.90;;;;;;6057950;23;20007;-91
2021/09/28 09:50:26;;;;;;;5.53;1.02;;;16.30;99.90;;;;;;6033252;23;20066;-89
2021/09/28 09:53:05;;;;;;;7.03;0.70;;;16.80;99.90;;;;;;6056782;23;20070;-90
2021/09/28 09:55:46;;;;;;;4.47;0.60;;;17.10;99.90;;;;;;6056482;23;20014;-90
2021/09/28 09:58:14;;;;;;;6.70;0.50;;;17.50;99.90;;;;;;6056863;23;20015;-89
2021/09/28 10:00:52;;;;;;;;;;;;;;;;;;;;;
2021/09/28 10:03:44;;;;;;;8.20;0.60;;;17.10;99.90;;;;;;6081015;23;20556;-91
2021/09/28 10:06:51;;;;;;;6.38;0.50;;;16.70;99.90;;;;;;6055622;23;20097;-91
2021/09/28 10:09:39;;;;;;;3.55;0.32;;;17.20;99.90;;;;;;6077819;23;20007;-90
2021/09/28 10:12:07;;;;;;;3.08;0.30;;;17.70;99.90;;;;;;6057114;23;20025;-89
2021/09/28 10:14:41;;;;;;;4.88;0.20;;;17.60;99.90;;;;;;6056389;23;20436;-90
2021/09/28 10:17:22;;;;;;;4.53;0.40;;;17.90;99.90;;;;;;6056914;23;20489;-90
2021/09/28 10:19:56;;;;;;;3.67;0.40;;;17.70;99.90;;;;;;6080801;23;20015;-90
2021/09/28 10:22:50;;;;;;;3.08;0.50;;;17.90;99.90;;;;;;6057138;23;20022;-89
2021/09/28 10:25:19;;;;;;;6.22;0.40;;;18.20;99.90;;;;;;6056287;23;20003;-91
2021/09/28 10:27:46;;;;;;;7.07;0.30;;;18.20;99.90;;;;;;6056686;23;20401;-89
2021/09/28 10:30:32;;;;;;;4.85;0.40;;;18.10;99.90;;;;;;6056791;23;20007;-87
2021/09/28 10:32:59;;;;;;;3.40;0.30;;;18.40;99.90;;;;;;6056342;23;20015;-88
2021/09/28 10:35:25;;;;;;;2.22;0.30;;;18.50;99.90;;;;;;6056845;23;20070;-89
2021/09/28 10:37:53;;;;;;;4.35;0.38;;;18.30;99.90;;;;;;6056477;23;20007;-89
2021/09/28 10:40:21;;;;;;;6.68;0.50;;;18.20;99.90;;;;;;6056657;23;20039;-88
2021/09/28 10:42:59;;;;;;;4.80;0.28;;;18.60;99.90;;;;;;6080530;23;20436;-88
2021/09/28 10:45:28;;;;;;;4.80;0.30;;;18.50;99.90;;;;;;6056336;23;20011;-90
2021/09/28 10:48:16;;;;;;;5.60;0.30;;;18.30;99.90;;;;;;6080699;23;20015;-90
2021/09/28 10:50:43;;;;;;;5.85;0.30;;;18.50;99.90;;;;;;6056529;23;20022;-89
2021/09/28 10:53:29;;;;;;;3.95;0.30;;;18.80;99.90;;;;;;6056394;23;20022;-91
2021/09/28 10:55:58;;;;;;;2.38;0.28;;;19.00;99.90;;;;;;6080163;23;20039;-91
2021/09/28 10:58:26;;;;;;;3.00;0.35;;;19.00;99.90;;;;;;6080860;23;20037;-89
2021/09/28 11:00:54;;;;;;;3.42;0.20;;;18.30;99.90;;;;;;6056586;23;20048;-88
2021/09/28 11:03:55;;;;;;;4.38;0.50;;;18.60;99.90;;;;;;6056552;23;20015;-89
2021/09/28 11:06:40;;;;;;;7.07;0.30;;;18.60;99.90;;;;;;6056294;23;20003;-90
2021/09/28 11:09:07;;;;;;;4.93;0.30;;;18.70;99.90;;;;;;6080171;23;20010;-90
2021/09/28 11:15:36;;;;;;;2.20;0.10;;;18.60;99.90;;;;;;6107226;23;20037;-92
2021/09/28 11:18:55;;;;;;;2.60;0.30;;;19.00;99.90;;;;;;6094927;23;20027;-91
2021/09/28 11:21:24;;;;;;;2.55;0.25;;;19.30;99.90;;;;;;6021220;23;20079;-91
2021/09/28 11:24:00;;;;;;;5.13;0.30;;;18.90;99.90;;;;;;6022846;23;20008;-92
2021/09/28 11:26:37;;;;;;;3.80;0.40;;;18.80;99.90;;;;;;5999270;23;20019;-90
2021/09/28 11:29:04;;;;;;;4.10;0.20;;;18.90;99.90;;;;;;6023062;23;20020;-89
2021/09/28 11:31:35;;;;;;;4.28;0.20;;;19.30;99.90;;;;;;6022994;23;20016;-89
2021/09/28 11:34:03;;;;;;;5.82;0.40;;;19.20;99.90;;;;;;5999603;23;20012;-92
2021/09/28 11:36:40;;;;;;;1.40;0.20;;;19.00;99.90;;;;;;5998049;23;20026;-90
2021/09/28 11:40:01;;;;;;;3.22;0.30;;;19.10;99.90;;;;;;6046707;23;20035;-93
2021/09/28 11:42:31;;;;;;;6.38;0.30;;;19.30;99.90;;;;;;5946175;23;20023;-92
2021/09/28 11:44:57;;;;;;;4.82;0.40;;;19.40;99.90;;;;;;5999452;23;20012;-89
2021/09/28 11:47:25;;;;;;;4.07;0.20;;;19.00;99.90;;;;;;6022617;23;20063;-91
2021/09/28 11:50:01;;;;;;;3.20;0.20;;;19.50;99.90;;;;;;6046904;23;20144;-93
2021/09/28 11:52:47;;;;;;;2.20;0.20;;;19.70;99.90;;;;;;6022913;23;20022;-94
2021/09/28 11:59:39;;;;;;;2.97;0.25;;;19.20;99.90;;;;;;6084139;23;20030;-92
2021/09/28 12:02:05;;;;;;;2.90;0.17;;;19.90;99.90;;;;;;6110707;23;20006;-92
2021/09/28 12:04:43;;;;;;;3.95;0.20;;;20.20;99.90;;;;;;6086966;23;20206;-90
2021/09/28 12:09:57;;;;;;;3.78;0.20;;;19.80;99.90;;;;;;6081196;23;20016;-89
2021/09/28 12:12:26;;;;;;;2.95;0.35;;;19.80;99.90;;;;;;6110085;23;20018;-89
2021/09/28 12:14:53;;;;;;;4.85;0.20;;;20.00;99.90;;;;;;6110758;23;20010;-91
2021/09/28 12:17:22;;;;;;;4.15;0.30;;;19.90;99.90;;;;;;6086301;23;20014;-92
2021/09/28 12:19:53;;;;;;;3.13;0.30;;;19.70;99.90;;;;;;6062522;23;20101;-90
2021/09/28 12:22:37;;;;;;;3.55;0.20;;;19.90;99.90;;;;;;6086594;23;20033;-92
2021/09/28 12:25:07;;;;;;;4.55;0.30;;;20.00;99.90;;;;;;6062804;23;20066;-92
2021/09/28 12:27:36;;;;;;;4.13;0.30;;;19.70;99.90;;;;;;6086590;23;20037;-91
2021/09/28 12:30:09;;;;;;;3.30;0.20;;;19.50;99.90;;;;;;6110850;23;20010;-91
2021/09/28 12:32:35;;;;;;;2.88;0.30;;;19.80;99.90;;;;;;6086849;23;20014;-92
2021/09/28 12:35:12;;;;;;;1.13;0.10;;;19.60;99.90;;;;;;6086617;23;20077;-92
2021/09/28 12:37:56;;;;;;;3.20;0.22;;;20.20;99.90;;;;;;6085484;23;20014;-93
2021/09/28 12:40:25;;;;;;;3.78;0.30;;;20.10;99.90;;;;;;6110457;23;20014;-94
2021/09/28 12:43:26;;;;;;;2.42;0.17;;;19.60;99.90;;;;;;6086478;23;20033;-92
2021/09/28 12:45:56;;;;;;;1.63;0.20;;;19.60;99.90;;;;;;5971373;24;20342;-92
2021/09/28 12:48:35;;;;;;;2.17;0.25;;;19.70;99.90;;;;;;5994814;24;20013;-92
2021/09/28 12:51:04;;;;;;;2.90;0.20;;;19.60;99.90;;;;;;5971345;24;20017;-91
2021/09/28 12:53:30;;;;;;;5.93;0.22;;;19.20;99.90;;;;;;5994853;24;20130;-90
2021/09/28 12:56:03;;;;;;;3.28;0.20;;;19.10;99.90;;;;;;5995216;24;20012;-95
2021/09/28 12:58:37;;;;;;;3.80;0.15;;;19.60;99.90;;;;;;5971240;24;20008;-94
2021/09/28 13:01:03;;;;;;;2.17;0.20;;;19.60;99.90;;;;;;5971759;24;20024;-92
2021/09/28 13:03:31;;;;;;;3.05;0.20;;;19.10;99.90;;;;;;5948259;24;20008;-92
2021/09/28 13:06:07;;;;;;;3.88;0.20;;;19.20;99.90;;;;;;5971630;24;20012;-92
2021/09/28 13:08:34;;;;;;;1.77;0.25;;;19.60;99.90;;;;;;5971116;24;20016;-91
2021/09/28 13:11:07;;;;;;;1.88;0.28;;;19.20;99.90;;;;;;5994836;24;20113;-92
2021/09/28 13:13:39;;;;;;;3.15;0.20;;;19.20;99.90;;;;;;5994957;24;20470;-95
2021/09/28 13:16:19;;;;;;;2.42;0.20;;;18.80;99.90;;;;;;5992755;24;20016;-94
2021/09/28 13:22:02;;;;;;;2.92;0.10;;;19.00;99.90;;;;;;6141888;23;20290;-92
2021/09/28 13:24:30;;;;;;;2.70;0.20;;;19.20;99.90;;;;;;6144663;23;20065;-92
2021/09/28 13:30:22;;;;;;;2.78;0.20;;;19.50;99.90;;;;;;6110470;23;20082;-94
2021/09/28 13:32:48;;;;;;;1.60;0.10;;;19.50;99.90;;;;;;6086199;23;20086;-92
2021/09/28 13:36:20;;;;;;;2.67;0.30;;;19.70;99.90;;;;;;6110077;23;20328;-94
2021/09/28 13:42:24;;;;;;;1.27;0.20;;;20.20;99.90;;;;;;6110103;23;20006;-90
2021/09/28 13:47:59;;;;;;;2.08;0.10;;;19.10;99.90;;;;;;6140571;23;20033;-92
2021/09/28 13:50:37;;;;;;;2.70;0.20;;;19.50;99.90;;;;;;6109564;23;20015;-90
2021/09/28 13:53:03;;;;;;;3.40;0.20;;;19.60;99.90;;;;;;6115138;23;20014;-90
2021/09/28 13:55:38;;;;;;;2.65;0.20;;;19.50;99.90;;;;;;6119709;23;20122;-92
2021/09/28 13:58:12;;;;;;;1.88;0.20;;;19.60;99.90;;;;;;6057032;23;20014;-91
2021/09/28 14:00:47;;;;;;;4.07;0.40;;;19.50;99.90;;;;;;6081070;23;20017;-91
2021/09/28 14:03:15;;;;;;;2.00;0.20;;;19.20;99.90;;;;;;6057205;23;20031;-91
2021/09/28 14:05:58;;;;;;;2.60;0.20;;;19.00;99.90;;;;;;6057272;23;20010;-91
2021/09/28 14:08:25;;;;;;;3.28;0.20;;;18.70;99.90;;;;;;6057350;23;20011;-91
2021/09/28 14:10:53;;;;;;;4.65;0.30;;;18.60;99.90;;;;;;6057176;23;20034;-91
2021/09/28 14:13:28;;;;;;;4.10;0.38;;;18.70;99.90;;;;;;6079337;23;20022;-91
2021/09/28 14:15:57;;;;;;;2.70;0.40;;;18.80;99.90;;;;;;6109383;23;20009;-91
2021/09/28 14:18:26;;;;;;;2.92;0.45;;;19.20;99.90;;;;;;6109569;23;20011;-91
2021/09/28 14:20:54;;;;;;;1.63;0.10;;;19.30;99.90;;;;;;6109305;23;20430;-92
2021/09/28 14:23:22;;;;;;;2.08;0.20;;;19.50;99.90;;;;;;6084894;23;20006;-90
2021/09/28 14:26:13;;;;;;;3.20;0.30;;;19.60;99.90;;;;;;6085306;23;20018;-92
2021/09/28 14:29:06;;;;;;;1.70;0.25;;;19.70;99.90;;;;;;6085653;23;20022;-93
2021/09/28 14:34:16;;;;;;;2.47;0.13;;;19.20;99.90;;;;;;6165202;23;20028;-93
2021/09/28 14:36:42;;;;;;;1.83;0.10;;;19.30;99.90;;;;;;6119336;23;20016;-93
2021/09/28 14:39:08;;;;;;;2.80;0.32;;;19.10;99.90;;;;;;6143278;23;20069;-92
2021/09/28 14:41:34;;;;;;;2.90;0.20;;;19.00;99.90;;;;;;6142895;23;20093;-91
2021/09/28 14:44:04;;;;;;;2.83;0.20;;;18.80;99.90;;;;;;6143601;23;20144;-92